Tiempo atmosférico en la estación meteorológica de San Bartolome Tirajana, Las Tirajanas, Las Palmas (960 m.)



Fecha
DESCASC
Temp. máxima en grados centígrados (hora)
DESCASC
Temp. mínima en grados centígrados (hora)
DESCASC
Temp. media en grados centígrados
DESCASC
Racha de viento máxima en m/sg (hora)
DESCASC
Velocidad máxima media en intervalos de 10 minutos(hora)
DESCASC
Precipitaciones diarias en mm
DESCASC
Precipitaciones de 00:00 a 06:00 en mm
DESCASC
Precipitaciones de 06:00 a 12:00 en mm
DESCASC
Precipitaciones de 12:00 a 18:00 en mm
DESCASC
Precipitaciones de 18:00 a 24:00 en mm
DESCASC
16-04-2019 23.2 (15:00) 12.2 (23:59) 17.7 7.78 (20:20) 4.72 (20:20) 0 0 0 0 0
15-04-2019 22.9 (15:00) 12.8 (05:00) 17.8 6.11 (14:10) 1.94 (12:30) 0 0 0 0 0
14-04-2019 25.7 (13:00) 12 (00:00) 18.9 5.83 (14:00) 1.94 (01:00) 0 0 0 0 0
13-04-2019 22.5 (15:50) 10.5 (00:00) 16.5 6.39 (12:50) 3.33 (12:50) 0 0 0 0 0
12-04-2019 21 (13:10) 7.5 (00:00) 14.3 5.83 (18:00) 2.78 (17:50) 0 0 0 0 0
11-04-2019 20.4 (14:30) 7.7 (00:00) 14 5 (15:20) 2.22 (16:00) 0 0 0 0 0
10-04-2019 19.7 (15:10) 7.7 (00:00) 13.7 6.39 (13:20) 2.5 (13:40) 0 0 0 0 0
09-04-2019 20.2 (13:50) 7.8 (00:00) 14 6.11 (13:00) 2.78 (15:10) 0 0 0 0 0
08-04-2019 18.5 (13:20) 7.3 (00:00) 12.9 5.28 (15:40) 2.22 (15:10) 0 0 0 0 0
07-04-2019 18 (12:00) 7.5 (00:00) 12.8 5.28 (11:30) 1.94 (07:00) 0 0 0 0 0
06-04-2019 18.3 (15:30) 8.6 (00:00) 13.4 12.5 (03:30) 5.28 (03:50) 0 0 0 0 0
05-04-2019 18.1 (14:00) 8 (00:00) 13.1 12.5 (22:00) 5.83 (18:10) 0 0 0 0 0
04-04-2019 16.2 (15:50) 8.1 (00:00) 12.2 7.78 (17:50) 2.78 (14:00) 0.4 0.4 0 0 0
03-04-2019 16.6 (13:50) 9.2 (00:00) 12.9 7.5 (12:30) 3.06 (12:40) 0 0 0 0 0
02-04-2019 19.7 (14:40) 8.3 (00:00) 14 6.11 (15:00) 2.78 (15:20) 0 0 0 0 0
01-04-2019 17.1 (11:50) 8.4 (00:00) 12.8 5 (12:00) 1.67 (08:10) 0.4 0 0 0 0.4
31-03-2019 16.7 (12:30) 7.2 (00:00) 12 5.28 (11:20) 2.22 (03:10) 0 0 0 0 0
30-03-2019 15.7 (11:00) 7 (00:00) 11.3 5.28 (10:50) 1.94 (05:50) 8 0 0 8 0
29-03-2019 16.5 (10:30) 7.7 (00:00) 12.1 6.67 (13:50) 3.06 (13:30) 0 0 0 0 0
28-03-2019 16.3 (11:10) 8.2 (00:00) 12.2 4.72 (10:40) 2.5 (21:10) 5.8 0 0 1.4 4.4
27-03-2019 17.1 (11:30) 8.3 (00:00) 12.7 6.11 (12:20) 2.22 (21:50) 2.4 0 0 2.2 0.2
26-03-2019 16 (10:10) 7.4 (00:00) 11.7 4.72 (13:00) 2.22 (12:50) 2.8 0 0 2.8 0
25-03-2019 12.8 (11:20) 8.2 (00:00) 10.5 6.67 (15:40) 2.78 (15:40) 8.8 0 0 8.2 0.6
24-03-2019 20.6 (13:50) 8.1 (00:00) 14.4 6.39 (14:20) 2.5 (14:20) 0 0 0 0 0
23-03-2019 22.7 (12:00) 12.1 (00:00) 17.4 8.33 (00:10) 3.33 (01:30) 0 0 0 0 0
22-03-2019 25.1 (15:10) 14.9 (00:00) 20 6.67 (23:50) 2.78 (23:50) 0 0 0 0 0
21-03-2019 26.1 (13:30) 13.8 (00:00) 20 8.33 (14:00) 2.78 (10:50) 0 0 0 0 0
20-03-2019 22.8 (14:50) 9.6 (00:00) 16.2 6.11 (12:40) 2.22 (06:20) 0 0 0 0 0
19-03-2019 21.3 (14:50) 9.3 (00:00) 15.3 6.39 (13:40) 2.5 (01:10) 0 0 0 0 0

Gráficas

Temp. máximas Temp. mínimas Temp. medias Precipitaciones Rachas de viento máximas Velocidades máximas media en intervalos de 10 minutos

Datos horarios

Fecha y hora oficial Temperatura (ºC) Velocidad del viento (km/h) Dirección del viento Racha (km/h) Dirección de racha Precipitación (mm) Presión (hPa) Tendencia (hPa) Humedad (%)
2019-04-17 23:00:00 11.5 4 Sudoeste 11 Nordeste 0 -- -- 90
2019-04-17 22:00:00 12.3 0 Calma 5 Sur 0 -- -- 94
2019-04-17 21:00:00 12.5 3 Sudeste 8 Sudeste 0 -- -- 95
2019-04-17 20:00:00 12.9 0 Calma 6 Sur 0 -- -- 93
2019-04-17 19:00:00 13.4 2 Este 8 Este 0 -- -- 90
2019-04-17 18:00:00 14.1 3 Este 10 Sudeste 0 -- -- 84
2019-04-17 17:00:00 14.8 3 Este 12 Este 0 -- -- 79
2019-04-17 16:00:00 15.7 3 Este 12 Sudeste 0 -- -- 74
2019-04-17 15:00:00 16.3 4 Sudeste 17 Este 0 -- -- 73
2019-04-17 14:00:00 18.3 4 Este 16 Este 0 -- -- 64
2019-04-17 13:00:00 19.3 7 Este 22 Este 0 -- -- 60
2019-04-17 12:00:00 19.1 4 Este 21 Sudeste 0 -- -- 60
2019-04-17 11:00:00 17.3 6 Este 18 Este 0 -- -- 62
2019-04-17 10:00:00 15.9 4 Este 12 Este 0 -- -- 68
2019-04-17 09:00:00 12.4 2 Norte 5 Este 0 -- -- 80
2019-04-17 08:00:00 9.7 4 Oeste 8 Oeste 0 -- -- 91
2019-04-17 07:00:00 10.6 2 Nordeste 6 Oeste 0 -- -- 89
2019-04-17 06:00:00 10.6 3 Oeste 8 Oeste 0 -- -- 89
2019-04-17 05:00:00 10.7 3 Oeste 8 Oeste 0 -- -- 92
2019-04-17 04:00:00 10.5 3 Oeste 12 Este 0 -- -- 94
2019-04-17 03:00:00 10.9 3 Sudoeste 21 Noroeste 0 -- -- 89
2019-04-17 02:00:00 12.5 6 Noroeste 23 Noroeste 0 -- -- 61
2019-04-17 01:00:00 11.8 3 Oeste 21 Noroeste 0 -- -- 91
2019-04-17 00:00:00 12.2 4 Este 18 Noroeste 0 -- -- 93
2019-04-16 23:00:00 12.6 3 Nordeste 10 Este 0 -- -- 91
2019-04-16 22:00:00 14.5 4 Este 22 Noroeste 0 -- -- 82
2019-04-16 21:00:00 18.4 10 Oeste 28 Noroeste 0 -- -- 24
2019-04-16 20:00:00 17.2 8 Noroeste 22 Noroeste 0 -- -- 40
2019-04-16 19:00:00 18.3 4 Este 10 Este 0 -- -- 71
2019-04-16 18:00:00 19.7 5 Este 13 Sudeste 0 -- -- 65
2019-04-16 17:00:00 20.9 5 Este 19 Sudeste 0 -- -- 61
2019-04-16 16:00:00 22.6 5 Este 16 Sudeste 0 -- -- 56
2019-04-16 15:00:00 23.2 5 Este 19 Este 0 -- -- 53
2019-04-16 14:00:00 22.3 6 Este 15 Este 0 -- -- 54
2019-04-16 13:00:00 21.1 5 Este 18 Este 0 -- -- 57
2019-04-16 12:00:00 20 6 Este 15 Este 0 -- -- 56
2019-04-16 11:00:00 18 5 Este 13 Este 0 -- -- 58
2019-04-16 10:00:00 17 4 Nordeste 13 Nordeste 0 -- -- 59
2019-04-16 09:00:00 15.7 3 Nordeste 5 Nordeste 0 -- -- 51
2019-04-16 08:00:00 12.9 4 Oeste 10 Noroeste 0 -- -- 38
2019-04-16 07:00:00 13.6 3 Sudeste 9 Sudoeste 0 -- -- 29
2019-04-16 06:00:00 13.7 6 Noroeste 13 Noroeste 0 -- -- 24
2019-04-16 05:00:00 13.7 6 Noroeste 9 Oeste 0 -- -- 22
2019-04-16 04:00:00 13.6 3 Oeste 4 Oeste 0 -- -- 27
2019-04-16 03:00:00 13.8 0 Calma 5 Noroeste 0 -- -- 30
2019-04-16 02:00:00 13.9 2 Sur 5 Este 0 -- -- 52
2019-04-16 01:00:00 14.8 4 Oeste 8 Noroeste 0 -- -- 33
2019-04-16 00:00:00 14 4 Oeste 6 Noroeste 0 -- -- 66
2019-04-15 23:00:00 14.3 2 Oeste 7 Oeste 0 -- -- 71
2019-04-15 22:00:00 14.4 3 Sudoeste 9 Oeste 0 -- -- 74
2019-04-15 21:00:00 14.2 0 Calma 6 Sudeste 0 -- -- 74
2019-04-15 20:00:00 15.8 2 Sudeste 7 Sudeste 0 -- -- 72
2019-04-15 19:00:00 17.8 4 Este 12 Sudeste 0 -- -- 60
2019-04-15 18:00:00 19.6 4 Este 14 Este 0 -- -- 55
2019-04-15 17:00:00 20.8 5 Este 16 Sudeste 0 -- -- 53
2019-04-15 16:00:00 22.1 5 Este 19 Este 0 -- -- 52
2019-04-15 15:00:00 22.9 5 Este 22 Este 0 -- -- 49
2019-04-15 14:00:00 22.6 6 Este 19 Nordeste 0 -- -- 48
2019-04-15 13:00:00 21.3 5 Sudeste 19 Este 0 -- -- 48
2019-04-15 12:00:00 21.5 6 Este 18 Nordeste 0 -- -- 49
2019-04-15 11:00:00 19.2 7 Este 15 Nordeste 0 -- -- 52
2019-04-15 10:00:00 18.2 3 Este 8 Este 0 -- -- 47
2019-04-15 09:00:00 15.4 3 Este 6 Este 0 -- -- 43
2019-04-15 08:00:00 13.9 3 Sudoeste 8 Oeste 0 -- -- 37
2019-04-15 07:00:00 14.4 6 Sudoeste 8 Sudoeste 0 -- -- 36
2019-04-15 06:00:00 14.1 4 Sudeste 8 Sudoeste 0 -- -- 51
2019-04-15 05:00:00 12.8 4 Oeste 7 Oeste 0 -- -- 51
2019-04-15 04:00:00 13.5 2 Sudeste 6 Este 0 -- -- 56
2019-04-15 03:00:00 14 3 Sur 6 Oeste 0 -- -- 60
2019-04-15 02:00:00 13.8 5 Oeste 7 Oeste 0 -- -- 61
2019-04-15 01:00:00 13.5 3 Nordeste 6 Este 0 -- -- 83
2019-04-15 00:00:00 13.7 0 Calma 5 Sudeste 0 -- -- 76
2019-04-14 23:00:00 14 3 Sudoeste 10 Oeste 0 -- -- 75
2019-04-14 22:00:00 12.8 4 Sudoeste 8 Oeste 0 -- -- 90
2019-04-14 21:00:00 13.5 0 Calma 5 Sudeste 0 -- -- 89
2019-04-14 20:00:00 15.4 3 Este 6 Este 0 -- -- 81
2019-04-14 19:00:00 17.3 3 Este 10 Este 0 -- -- 74
2019-04-14 18:00:00 19.1 4 Este 15 Este 0 -- -- 67
2019-04-14 17:00:00 21.2 5 Este 21 Este 0 -- -- 59
2019-04-14 16:00:00 23.7 4 Este 21 Nordeste 0 -- -- 50
2019-04-14 15:00:00 24.4 6 Este 20 Sudeste 0 -- -- 44
2019-04-14 14:00:00 24.8 5 Este 21 Este 0 -- -- 34
2019-04-14 13:00:00 25.7 6 Este 18 Este 0 -- -- 34
2019-04-14 12:00:00 24.7 5 Este 16 Este 0 -- -- 20
2019-04-14 11:00:00 22.5 4 Este 13 Este 0 -- -- 21
2019-04-14 10:00:00 19.9 4 Nordeste 9 Este 0 -- -- 24
2019-04-14 09:00:00 15.5 2 Sudoeste 6 Sudoeste 0 -- -- 30
2019-04-14 08:00:00 12.2 2 Sur 10 Noroeste 0 -- -- 37
2019-04-14 07:00:00 12.7 5 Sudoeste 8 Sudoeste 0 -- -- 37
2019-04-14 06:00:00 12.7 3 Noroeste 8 Noroeste 0 -- -- 39
2019-04-14 05:00:00 12.9 3 Noroeste 10 Sudeste 0 -- -- 37
2019-04-14 04:00:00 12.5 6 Sudoeste 9 Sudoeste 0 -- -- 44
2019-04-14 03:00:00 12.9 0 Calma 6 Sudoeste 0 -- -- 53
2019-04-14 02:00:00 13.6 3 Sur 9 Noroeste 0 -- -- 48
2019-04-14 01:00:00 13.7 7 Noroeste 10 Noroeste 0 -- -- 46
2019-04-14 00:00:00 14.8 4 Sudeste 10 Noroeste 0 -- -- 45
2019-04-13 23:00:00 13.9 5 Oeste 11 Noroeste 0 -- -- 51
2019-04-13 22:00:00 14.5 4 Sur 8 Oeste 0 -- -- 60
2019-04-13 21:00:00 15.2 2 Norte 7 Sudeste 0 -- -- 62
2019-04-13 20:00:00 17.3 2 Este 9 Sudeste 0 -- -- 49
2019-04-13 19:00:00 19.6 4 Sudeste 15 Sudeste 0 -- -- 43
2019-04-13 18:00:00 20.9 6 Sudeste 19 Sur 0 -- -- 42
2019-04-13 17:00:00 22 7 Sudeste 18 Sur 0 -- -- 36
2019-04-13 16:00:00 22.2 6 Sudeste 21 Este 0 -- -- 36
2019-04-13 15:00:00 22.4 6 Sudeste 19 Sur 0 -- -- 34
2019-04-13 14:00:00 21.2 8 Sudeste 21 Sudeste 0 -- -- 38
2019-04-13 13:00:00 20.7 9 Sur 23 Sur 0 -- -- 40
2019-04-13 12:00:00 20.7 6 Sur 19 Sur 0 -- -- 25
2019-04-13 11:00:00 21.2 5 Este 15 Sur 0 -- -- 22
2019-04-13 10:00:00 19.2 4 Este 13 Este 0 -- -- 27
2019-04-13 09:00:00 15.5 3 Este 11 Sur 0 -- -- 34
2019-04-13 08:00:00 10.5 5 Noroeste 12 Noroeste 0 -- -- 42
2019-04-13 07:00:00 11.3 3 Nordeste 7 Este 0 -- -- 42
2019-04-13 06:00:00 12.4 4 Sur 10 Noroeste 0 -- -- 37
2019-04-13 05:00:00 12.1 5 Sudoeste 8 Sudoeste 0 -- -- 39
2019-04-13 04:00:00 11.5 2 Sudoeste 9 Noroeste 0 -- -- 46
2019-04-13 03:00:00 11.5 3 Nordeste 12 Noroeste 0 -- -- 48
2019-04-13 02:00:00 11.2 3 Noroeste 6 Noroeste 0 -- -- 48
2019-04-13 01:00:00 11.5 2 Sur 8 Oeste 0 -- -- 58
2019-04-13 00:00:00 10.7 3 Norte 5 Sudeste 0 -- -- 80
2019-04-12 23:00:00 11.3 3 Este 8 Noroeste 0 -- -- 77
2019-04-12 22:00:00 11.8 2 Nordeste 7 Este 0 -- -- 74
2019-04-12 21:00:00 12.9 3 Sur 10 Sudoeste 0 -- -- 70
2019-04-12 20:00:00 14.4 2 Sudoeste 9 Sur 0 -- -- 69
2019-04-12 19:00:00 16.7 3 Este 14 Sudeste 0 -- -- 57
2019-04-12 18:00:00 18.4 9 Sur 21 Sur 0 -- -- 55
2019-04-12 17:00:00 20.3 5 Sudeste 16 Sudeste 0 -- -- 48
2019-04-12 16:00:00 20.1 6 Sudeste 17 Este 0 -- -- 51
2019-04-12 15:00:00 20.3 6 Sudeste 17 Sudeste 0 -- -- 47
2019-04-12 14:00:00 18.3 9 Sur 20 Sudeste 0 -- -- 57
2019-04-12 13:00:00 20.6 4 Este 18 Sur 0 -- -- 48
2019-04-12 12:00:00 18.9 4 Sudeste 14 Sudeste 0 -- -- 52
2019-04-12 11:00:00 17.1 5 Este 14 Este 0 -- -- 58
2019-04-12 10:00:00 14.6 4 Nordeste 12 Este 0 -- -- 62
2019-04-12 09:00:00 11.1 3 Noroeste 12 Oeste 0 -- -- 75
2019-04-12 08:00:00 7.8 5 Noroeste 11 Sudoeste 0 -- -- 75
2019-04-12 07:00:00 8.5 3 Sur 11 Sudoeste 0 -- -- 74
2019-04-12 06:00:00 8.3 5 Oeste 11 Oeste 0 -- -- 85
2019-04-12 05:00:00 8 2 Noroeste 9 Noroeste 0 -- -- 87
2019-04-12 04:00:00 8 4 Noroeste 8 Oeste 0 -- -- 90
2019-04-12 03:00:00 8.8 3 Oeste 12 Sur 0 -- -- 94
2019-04-12 02:00:00 9 4 Sudoeste 9 Oeste 0 -- -- 93
2019-04-12 01:00:00 9.3 4 Sudoeste 9 Oeste 0 -- -- 89
2019-04-12 00:00:00 10 2 Sudeste 10 Sudoeste -- -- -- 90
2019-04-11 23:00:00 10.7 2 Noroeste 17 Nordeste 0 -- -- 91
2019-04-11 22:00:00 11.1 4 Sudeste 15 Sur 0 -- -- 91
2019-04-11 21:00:00 11.9 3 Sur 8 Oeste 0 -- -- 87
2019-04-11 20:00:00 13.5 3 Sur 11 Sudoeste 0 -- -- 79
2019-04-11 19:00:00 16.1 3 Este 11 Este 0 -- -- 68
2019-04-11 18:00:00 17.8 5 Sudeste 14 Sudeste 0 -- -- 62
2019-04-11 17:00:00 19.2 5 Sudeste 16 Sudeste 0 -- -- 57
2019-04-11 16:00:00 19.6 8 Este 18 Sudeste 0 -- -- 57
2019-04-11 15:00:00 19.5 6 Sudeste 16 Este 0 -- -- 56
2019-04-11 14:00:00 19.9 5 Sudeste 15 Sudeste 0 -- -- 56
2019-04-11 13:00:00 18.9 6 Este 16 Este 0 -- -- 56
2019-04-11 12:00:00 17.7 5 Este 17 Este 0 -- -- 60
2019-04-11 11:00:00 16.4 4 Este 15 Este 0 -- -- 63
2019-04-11 10:00:00 14.2 4 Este 14 Nordeste 0 -- -- 69
2019-04-11 09:00:00 11.3 3 Este 14 Sur 0 -- -- 67
2019-04-11 08:00:00 8.4 4 Sur 9 Sur 0 -- -- 76
2019-04-11 07:00:00 8.4 6 Sur 11 Sur 0 -- -- 82
2019-04-11 06:00:00 8.2 5 Sudoeste 10 Oeste 0 -- -- 72
2019-04-11 05:00:00 7.7 4 Oeste 17 Noroeste 0 -- -- 85
2019-04-11 04:00:00 8.5 6 Oeste 15 Sur 0 -- -- 91
2019-04-11 03:00:00 8.4 3 Sudoeste 12 Sudoeste 0 -- -- 92
2019-04-11 02:00:00 8.3 5 Noroeste 9 Oeste 0 -- -- 91
2019-04-11 01:00:00 9.1 3 Noroeste 9 Noroeste 0 -- -- 89
2019-04-11 00:00:00 9.7 4 Sudoeste 6 Sudoeste 0 -- -- 89
2019-04-10 23:00:00 10.8 2 Sur 7 Sudoeste 0 -- -- 90
2019-04-10 22:00:00 11.2 4 Sudoeste 6 Sudoeste 0 -- -- 86
2019-04-10 21:00:00 11.9 0 Calma 6 Sur 0 -- -- 83
2019-04-10 20:00:00 13 4 Sur 9 Sur 0 -- -- 79
2019-04-10 19:00:00 15.3 6 Sur 15 Sur 0 -- -- 69
2019-04-10 18:00:00 17.8 4 Sudeste 17 Sudeste 0 -- -- 60
2019-04-10 17:00:00 19 5 Sudeste 17 Sudeste 0 -- -- 56
2019-04-10 16:00:00 18.6 6 Sur 18 Sudeste 0 -- -- 58
2019-04-10 15:00:00 19.3 8 Sudeste 20 Sudeste 0 -- -- 56
2019-04-10 14:00:00 17.9 9 Sur 23 Este 0 -- -- 60
2019-04-10 13:00:00 18.1 8 Sudeste 18 Sudeste 0 -- -- 60
2019-04-10 12:00:00 17.9 5 Este 16 Sur 0 -- -- 57
2019-04-10 11:00:00 16.2 5 Este 14 Este 0 -- -- 64
2019-04-10 10:00:00 13.6 4 Nordeste 10 Este 0 -- -- 73
2019-04-10 09:00:00 10.7 2 Norte 10 Sudeste 0 -- -- 88
2019-04-10 08:00:00 7.7 4 Oeste 8 Sudoeste 0 -- -- 93
2019-04-10 07:00:00 7.9 4 Oeste 9 Sudoeste 0 -- -- 94
2019-04-10 06:00:00 8.5 5 Sudoeste 9 Oeste 0 -- -- 96
2019-04-10 05:00:00 8.9 4 Oeste 10 Sudoeste 0 -- -- 97
2019-04-10 04:00:00 8.4 6 Oeste 10 Sur 0 -- -- 96
2019-04-10 03:00:00 8.7 6 Oeste 10 Sudoeste 0 -- -- 94
2019-04-10 02:00:00 9.4 3 Oeste 11 Sudeste 0 -- -- 96
2019-04-10 01:00:00 9.6 3 Sur 8 Sudoeste 0 -- -- 94
2019-04-10 00:00:00 10 4 Sudoeste 10 Oeste 0 -- -- 93
2019-04-09 23:00:00 10.9 0 Calma 4 Oeste 0 -- -- 91
2019-04-09 22:00:00 11.9 0 Calma 7 Sudeste 0 -- -- 90
2019-04-09 21:00:00 12.6 2 Este 6 Sur 0 -- -- 88
2019-04-09 20:00:00 13.4 3 Este 9 Sur 0 -- -- 84
2019-04-09 19:00:00 14.3 3 Nordeste 10 Sur 0 -- -- 80
2019-04-09 18:00:00 15.6 3 Sur 12 Sudeste 0 -- -- 74
2019-04-09 17:00:00 15.5 5 Sudeste 15 Sudeste 0 -- -- 72
2019-04-09 16:00:00 16.8 5 Sudeste 21 Sudeste 0 -- -- 67
2019-04-09 15:00:00 18 6 Sudeste 21 Sur 0 -- -- 61
2019-04-09 14:00:00 20.1 6 Sur 18 Sur 0 -- -- 55
2019-04-09 13:00:00 19.5 7 Sudeste 22 Este 0 -- -- 54
2019-04-09 12:00:00 17.9 4 Nordeste 16 Este 0 -- -- 53
2019-04-09 11:00:00 16.6 5 Nordeste 16 Este 0 -- -- 57
2019-04-09 10:00:00 13.5 4 Nordeste 10 Este 0 -- -- 69
2019-04-09 09:00:00 10 2 Norte 6 Nordeste 0 -- -- 86
2019-04-09 08:00:00 7.8 2 Este 7 Noroeste 0 -- -- 87
2019-04-09 07:00:00 8.2 2 Sudoeste 7 Sudoeste 0 -- -- 84
2019-04-09 06:00:00 8.5 2 Sudeste 5 Sudoeste 0 -- -- 77
2019-04-09 05:00:00 8.4 3 Oeste 5 Noroeste 0 -- -- 77
2019-04-09 04:00:00 8.1 5 Oeste 8 Noroeste 0 -- -- 72
2019-04-09 03:00:00 8.7 3 Oeste 9 Noroeste 0 -- -- 75
2019-04-09 02:00:00 8.9 5 Noroeste 8 Noroeste 0 -- -- 76
2019-04-09 01:00:00 9.4 5 Oeste 8 Noroeste 0 -- -- 91
2019-04-09 00:00:00 9.8 2 Noroeste 6 Sudoeste 0 -- -- 90
2019-04-08 23:00:00 10.6 5 Sudoeste 6 Sudoeste 0 -- -- 88
2019-04-08 22:00:00 11.8 0 Calma 7 Este 0 -- -- 87
2019-04-08 21:00:00 12.7 3 Este 12 Sur 0 -- -- 84
2019-04-08 20:00:00 13.5 3 Sudeste 12 Sudeste 0 -- -- 80
2019-04-08 19:00:00 14.8 4 Sudeste 12 Este 0 -- -- 74
2019-04-08 18:00:00 15.5 5 Sudeste 17 Sudeste 0 -- -- 73
2019-04-08 17:00:00 16.7 5 Este 17 Sur 0 -- -- 70
2019-04-08 16:00:00 16.5 6 Sur 19 Sur 0 -- -- 69
2019-04-08 15:00:00 17.2 6 Sudoeste 16 Sudoeste 0 -- -- 64
2019-04-08 14:00:00 17.8 4 Nordeste 19 Sudeste 0 -- -- 62
2019-04-08 13:00:00 17.5 7 Sur 19 Este 0 -- -- 62
2019-04-08 12:00:00 17.3 7 Sudeste 17 Sudeste 0 -- -- 59
2019-04-08 11:00:00 16.1 5 Este 15 Este 0 -- -- 60
2019-04-08 10:00:00 14.1 4 Nordeste 9 Este 0 -- -- 69
2019-04-08 09:00:00 10.2 3 Nordeste 8 Noroeste 0 -- -- 87
2019-04-08 08:00:00 7.3 7 Noroeste 9 Noroeste 0 -- -- 94
2019-04-08 07:00:00 7.6 3 Oeste 7 Oeste 0 -- -- 95
2019-04-08 06:00:00 7.9 4 Oeste 5 Oeste 0 -- -- 94
2019-04-08 05:00:00 8.3 4 Noroeste 6 Noroeste 0 -- -- 91
2019-04-08 04:00:00 8.3 3 Oeste 6 Noroeste 0 -- -- 92
2019-04-08 03:00:00 8.4 4 Oeste 8 Noroeste 0 -- -- 91
2019-04-08 02:00:00 8.8 3 Oeste 5 Oeste 0 -- -- 90
2019-04-08 01:00:00 9.3 4 Oeste 6 Noroeste 0 -- -- 87
2019-04-08 00:00:00 9.5 5 Sudoeste 9 Oeste 0 -- -- 87
2019-04-07 23:00:00 10.9 2 Noroeste 4 Oeste 0 -- -- 88
2019-04-07 22:00:00 11.1 0 Calma 6 Sur 0 -- -- 87
2019-04-07 21:00:00 11.8 3 Sur 9 Sudeste 0 -- -- 85
2019-04-07 20:00:00 13 2 Este 9 Nordeste 0 -- -- 81
2019-04-07 19:00:00 13.8 3 Sur 13 Sur 0 -- -- 73
2019-04-07 18:00:00 14.2 5 Sudeste 17 Sudeste 0 -- -- 73
2019-04-07 17:00:00 15.5 4 Este 16 Sudeste 0 -- -- 69
2019-04-07 16:00:00 16 5 Este 15 Este 0 -- -- 65
2019-04-07 15:00:00 15.3 5 Este 15 Este 0 -- -- 68
2019-04-07 14:00:00 14.4 4 Sudeste 14 Sur 0 -- -- 70
2019-04-07 13:00:00 15.6 5 Sur 17 Sudeste 0 -- -- 65
2019-04-07 12:00:00 18 6 Este 19 Este 0 -- -- 51
2019-04-07 11:00:00 16.1 6 Este 14 Nordeste 0 -- -- 56
2019-04-07 10:00:00 14.6 4 Este 12 Nordeste 0 -- -- 61
2019-04-07 09:00:00 11 4 Nordeste 7 Nordeste 0 -- -- 71
2019-04-07 08:00:00 7.6 5 Oeste 10 Noroeste 0 -- -- 81
2019-04-07 07:00:00 7.6 7 Noroeste 11 Noroeste 0 -- -- 82
2019-04-07 06:00:00 8.3 2 Nordeste 6 Sudoeste 0 -- -- 80
2019-04-07 05:00:00 7.8 4 Oeste 8 Noroeste 0 -- -- 81
2019-04-07 04:00:00 7.9 5 Noroeste 9 Noroeste 0 -- -- 84
2019-04-07 03:00:00 8.2 3 Noroeste 8 Noroeste 0 -- -- 83
2019-04-07 02:00:00 8.6 2 Noroeste 6 Oeste 0 -- -- 82
2019-04-07 01:00:00 9 5 Sudoeste 7 Sudoeste 0 -- -- 88
2019-04-07 00:00:00 9.2 4 Oeste 6 Oeste 0 -- -- 88
2019-04-06 23:00:00 10.1 0 Calma 8 Sur 0 -- -- 86
2019-04-06 22:00:00 10.6 3 Sur 9 Sur 0 -- -- 85
2019-04-06 21:00:00 11 5 Sur 9 Sur 0 -- -- 83
2019-04-06 20:00:00 12.1 3 Sudoeste 10 Sur 0 -- -- 77
2019-04-06 19:00:00 13.7 4 Sudeste 13 Sudeste 0 -- -- 70
2019-04-06 18:00:00 15.2 3 Este 18 Sudeste 0 -- -- 63
2019-04-06 17:00:00 16.2 5 Este 16 Sudeste 0 -- -- 60
2019-04-06 16:00:00 17.1 8 Sudeste 22 Sudeste 0 -- -- 56
2019-04-06 15:00:00 17 7 Sur 25 Sudoeste 0 -- -- 56
2019-04-06 14:00:00 17.4 6 Norte 25 Oeste 0 -- -- 46
2019-04-06 13:00:00 16.9 12 Noroeste 30 Noroeste 0 -- -- 48
2019-04-06 12:00:00 16.7 6 Este 21 Sudeste 0 -- -- 51
2019-04-06 11:00:00 15 6 Sudeste 23 Sudeste 0 -- -- 55
2019-04-06 10:00:00 13.4 5 Este 17 Sudeste 0 -- -- 60
2019-04-06 09:00:00 9.7 3 Este 15 Sur 0 -- -- 71
2019-04-06 08:00:00 9.7 6 Sudeste 27 Nordeste 0 -- -- 69
2019-04-06 07:00:00 9.2 10 Norte 36 Norte 0 -- -- 67
2019-04-06 06:00:00 8.8 7 Norte 31 Noroeste 0 -- -- 65
2019-04-06 05:00:00 9.5 9 Norte 38 Noroeste 0 -- -- 63
2019-04-06 04:00:00 9.8 14 Noroeste 45 Noroeste 0 -- -- 67
2019-04-06 03:00:00 10.2 11 Oeste 26 Oeste 0 -- -- 72
2019-04-06 02:00:00 10.1 5 Noroeste 36 Noroeste 0 -- -- 66
2019-04-06 01:00:00 10.9 5 Sudoeste 21 Oeste 0 -- -- 69
2019-04-06 00:00:00 10.5 11 Sudoeste 40 Oeste 0 -- -- 71
2019-04-05 23:00:00 10.7 15 Oeste 41 Oeste 0 -- -- 66
2019-04-05 22:00:00 10.7 18 Noroeste 45 Noroeste 0 -- -- 66
2019-04-05 21:00:00 11.4 18 Oeste 45 Noroeste 0 -- -- 65
2019-04-05 20:00:00 11.7 12 Oeste 39 Oeste 0 -- -- 71
2019-04-05 19:00:00 12.6 14 Oeste 42 Noroeste 0 -- -- 63
2019-04-05 18:00:00 14.8 14 Noroeste 30 Noroeste 0 -- -- 56
2019-04-05 17:00:00 15.6 6 Este 17 Sudeste 0 -- -- 64
2019-04-05 16:00:00 17.7 4 Este 30 Noroeste 0 -- -- 55
2019-04-05 15:00:00 17.7 8 Norte 30 Norte 0 -- -- 42
2019-04-05 14:00:00 18.1 9 Noroeste 29 Noroeste 0 -- -- 46
2019-04-05 13:00:00 16.4 9 Noroeste 23 Noroeste 0 -- -- 48
2019-04-05 12:00:00 16.3 7 Este 24 Noroeste 0 -- -- 61
2019-04-05 11:00:00 14.2 3 Noroeste 17 Este 0 -- -- 59
2019-04-05 10:00:00 14.1 6 Este 14 Este 0 -- -- 67
2019-04-05 09:00:00 11.1 4 Este 15 Norte 0 -- -- 77
2019-04-05 08:00:00 8.7 7 Noroeste 21 Noroeste 0 -- -- 76
2019-04-05 07:00:00 8.9 4 Sur 18 Oeste 0 -- -- 75
2019-04-05 06:00:00 8.6 9 Noroeste 21 Noroeste 0 -- -- 75
2019-04-05 05:00:00 8.2 4 Noroeste 10 Sudoeste 0 -- -- 83
2019-04-05 04:00:00 8.6 0 Calma 11 Noroeste 0 -- -- 91
2019-04-05 03:00:00 9.1 5 Sudoeste 12 Noroeste 0 -- -- 84
2019-04-05 02:00:00 9.1 4 Nordeste 14 Noroeste 0 -- -- 87
2019-04-05 01:00:00 9.2 2 Nordeste 7 Oeste 0 -- -- 91
2019-04-05 00:00:00 10 0 Calma 17 Oeste 0 -- -- 92
2019-04-04 23:00:00 10.2 3 Oeste 15 Oeste 0 -- -- 90
2019-04-04 22:00:00 10.5 4 Norte 26 Noroeste 0 -- -- 72
2019-04-04 21:00:00 11 3 Sudeste 8 Este 0 -- -- 86
2019-04-04 20:00:00 12.8 3 Este 17 Sudeste 0 -- -- 80
2019-04-04 19:00:00 14.4 3 Este 26 Noroeste 0 -- -- 73
2019-04-04 18:00:00 14.9 9 Noroeste 28 Noroeste 0 -- -- 58
2019-04-04 17:00:00 14.7 6 Norte 19 Nordeste 0 -- -- 68
2019-04-04 16:00:00 15.4 5 Nordeste 21 Noroeste 0 -- -- 63
2019-04-04 15:00:00 16 5 Nordeste 21 Nordeste 0 -- -- 56
2019-04-04 14:00:00 14.4 10 Sudoeste 24 Oeste 0 -- -- 68
2019-04-04 13:00:00 13.5 4 Noroeste 12 Noroeste 0 -- -- 70
2019-04-04 12:00:00 14.1 3 Este 17 Este 0 -- -- 76
2019-04-04 11:00:00 14.7 6 Este 15 Este 0 -- -- 71
2019-04-04 10:00:00 13.2 5 Este 13 Este 0 -- -- 72
2019-04-04 09:00:00 10.8 3 Nordeste 16 Oeste 0 -- -- 79
2019-04-04 08:00:00 8.9 5 Oeste 15 Oeste 0 -- -- 84
2019-04-04 07:00:00 8.9 6 Noroeste 18 Oeste 0 -- -- 84
2019-04-04 06:00:00 8.6 4 Oeste 18 Norte 0 -- -- 86
2019-04-04 05:00:00 8.4 8 Oeste 15 Oeste 0 -- -- 87
2019-04-04 04:00:00 8.4 7 Oeste 13 Oeste 0.2 -- -- 88
2019-04-04 03:00:00 9.2 5 Sur 12 Noroeste 0.2 -- -- 86
2019-04-04 02:00:00 9.4 2 Oeste 16 Noroeste 0 -- -- 80
2019-04-04 01:00:00 10.1 6 Oeste 21 Oeste 0 -- -- 74
2019-04-04 00:00:00 9.8 9 Oeste 18 Oeste 0 -- -- 74
2019-04-03 23:00:00 9.5 5 Oeste 7 Oeste 0 -- -- 91
2019-04-03 22:00:00 10.4 2 Sur 7 Sudeste 0 -- -- 90
2019-04-03 21:00:00 11.3 3 Este 7 Sudeste 0 -- -- 88
2019-04-03 20:00:00 12 2 Este 10 Sudeste 0 -- -- 85
2019-04-03 19:00:00 12.9 4 Este 13 Sudeste 0 -- -- 79
2019-04-03 18:00:00 13.7 4 Este 14 Este 0 -- -- 77
2019-04-03 17:00:00 14.4 5 Este 15 Sudeste 0 -- -- 75
2019-04-03 16:00:00 13.9 4 Este 21 Nordeste 0 -- -- 75
2019-04-03 15:00:00 14.5 7 Este 23 Sudeste 0 -- -- 72
2019-04-03 14:00:00 16.2 6 Sudeste 22 Sur 0 -- -- 67
2019-04-03 13:00:00 15.3 6 Sudeste 27 Sur 0 -- -- 56
2019-04-03 12:00:00 16 6 Sur 19 Sur 0 -- -- 69
2019-04-03 11:00:00 14.7 5 Nordeste 15 Este 0 -- -- 78
2019-04-03 10:00:00 14.5 6 Este 13 Nordeste 0 -- -- 78
2019-04-03 09:00:00 11 0 Calma 12 Norte 0 -- -- 86
2019-04-03 08:00:00 10 2 Nordeste 6 Noroeste 0 -- -- 93
2019-04-03 07:00:00 9.8 3 Norte 15 Oeste 0 -- -- 95
2019-04-03 06:00:00 9.5 9 Oeste 17 Oeste 0 -- -- 92
2019-04-03 05:00:00 9.5 4 Oeste 8 Sudoeste 0 -- -- 94
2019-04-03 04:00:00 9.8 2 Oeste 7 Noroeste 0 -- -- 94
2019-04-03 03:00:00 10.3 3 Sudoeste 6 Sudoeste 0 -- -- 95
2019-04-03 02:00:00 11.2 3 Oeste 4 Noroeste 0 -- -- 94
2019-04-03 01:00:00 11.4 0 Calma 5 Sudoeste 0 -- -- 93
2019-04-03 00:00:00 11.7 0 Calma 6 Sudeste 0 -- -- 95
2019-04-02 23:00:00 11.8 2 Sudeste 5 Este 0 -- -- 94
2019-04-02 22:00:00 11.9 2 Este 6 Este 0 -- -- 93
2019-04-02 21:00:00 12.2 0 Calma 9 Sudeste 0 -- -- 92
2019-04-02 20:00:00 12.6 2 Este 8 Este 0 -- -- 88
2019-04-02 19:00:00 13.4 4 Este 18 Sudeste 0 -- -- 85
2019-04-02 18:00:00 15.1 5 Sudeste 13 Sudeste 0 -- -- 75
2019-04-02 17:00:00 15.7 5 Sudeste 18 Sudeste 0 -- -- 70
2019-04-02 16:00:00 17.1 6 Sur 22 Sur 0 -- -- 55
2019-04-02 15:00:00 17.8 8 Sudeste 22 Sudeste 0 -- -- 54
2019-04-02 14:00:00 18.1 5 Sudeste 17 Sur 0 -- -- 59
2019-04-02 13:00:00 18.6 5 Sur 18 Este 0 -- -- 53
2019-04-02 12:00:00 16.8 5 Nordeste 16 Nordeste 0 -- -- 57
2019-04-02 11:00:00 16.2 4 Este 14 Nordeste 0 -- -- 63
2019-04-02 10:00:00 13.1 4 Este 9 Este 0 -- -- 80
2019-04-02 09:00:00 10.4 4 Noroeste 8 Oeste 0 -- -- 90
2019-04-02 08:00:00 8.6 4 Noroeste 9 Oeste 0 -- -- 87
2019-04-02 07:00:00 8.6 4 Oeste 6 Oeste 0 -- -- 85
2019-04-02 06:00:00 9 0 Calma 5 Sudeste 0 -- -- 87
2019-04-02 05:00:00 9.5 2 Sudoeste 10 Noroeste 0 -- -- 84
2019-04-02 04:00:00 9.2 8 Noroeste 12 Noroeste 0 -- -- 86
2019-04-02 03:00:00 9.6 4 Noroeste 6 Noroeste 0 -- -- 86
2019-04-02 02:00:00 9.8 4 Oeste 12 Noroeste 0 -- -- 84
2019-04-02 01:00:00 9.7 2 Oeste 6 Noroeste 0 -- -- 91
2019-04-02 00:00:00 9.8 4 Noroeste 8 Noroeste 0 -- -- 94
2019-04-01 23:00:00 9.7 3 Oeste 8 Noroeste 0 -- -- 96
2019-04-01 22:00:00 10 3 Sudoeste 6 Sur 0 -- -- 96
2019-04-01 21:00:00 10.3 4 Oeste 6 Sudoeste 0.2 -- -- 95
2019-04-01 20:00:00 11 2 Este 6 Sudeste 0 -- -- 96
2019-04-01 19:00:00 11.2 4 Sudeste 10 Sudeste 0.2 -- -- 96
2019-04-01 18:00:00 12 3 Este 11 Este 0 -- -- 89
2019-04-01 17:00:00 12.1 3 Este 12 Este 0 -- -- 91
2019-04-01 16:00:00 11.7 3 Este 11 Este 0 -- -- 92
2019-04-01 15:00:00 12.1 2 Nordeste 10 Este 0 -- -- 92
2019-04-01 14:00:00 12.1 3 Nordeste 15 Sudeste 0 -- -- 89
2019-04-01 13:00:00 13.2 4 Este 14 Sur 0 -- -- 83
2019-04-01 12:00:00 16.3 5 Este 18 Este 0 -- -- 66
2019-04-01 11:00:00 14 3 Este 13 Este 0 -- -- 74
2019-04-01 10:00:00 13.4 4 Nordeste 11 Este 0 -- -- 76
2019-04-01 09:00:00 9.4 3 Nordeste 10 Noroeste 0 -- -- 87
2019-04-01 08:00:00 8.8 3 Noroeste 11 Noroeste 0 -- -- 86
2019-04-01 07:00:00 8.7 4 Oeste 6 Oeste 0 -- -- 89
2019-04-01 06:00:00 9.1 4 Oeste 8 Noroeste 0 -- -- 87
2019-04-01 05:00:00 9 4 Noroeste 8 Noroeste 0 -- -- 90
2019-04-01 04:00:00 9.2 4 Oeste 6 Noroeste 0 -- -- 89
2019-04-01 03:00:00 9 5 Noroeste 8 Noroeste 0 -- -- 88
2019-04-01 02:00:00 9.4 3 Noroeste 6 Oeste 0 -- -- 84
2019-04-01 01:00:00 9.5 4 Oeste 9 Noroeste 0 -- -- 86
2019-04-01 00:00:00 9.8 6 Noroeste 9 Noroeste 0 -- -- 90
2019-03-31 23:00:00 10.6 5 Oeste 11 Noroeste 0 -- -- 91
2019-03-31 22:00:00 11.1 0 Calma 6 Sudeste 0 -- -- 94
2019-03-31 21:00:00 11.4 0 Calma 10 Sudeste 0 -- -- 92
2019-03-31 20:00:00 12 2 Sudeste 7 Sur 0 -- -- 91
2019-03-31 19:00:00 12.4 2 Este 8 Sudeste 0 -- -- 89
2019-03-31 18:00:00 13.4 3 Este 12 Este 0 -- -- 82
2019-03-31 17:00:00 12.8 3 Oeste 7 Nordeste 0 -- -- 80
2019-03-31 16:00:00 12.8 3 Este 13 Sudeste 0 -- -- 79
2019-03-31 15:00:00 13.1 7 Sudoeste 19 Sudoeste 0 -- -- 73
2019-03-31 14:00:00 14.9 4 Sudeste 19 Sudeste 0 -- -- 73
2019-03-31 13:00:00 15.7 4 Nordeste 15 Este 0 -- -- 69
2019-03-31 12:00:00 16.6 7 Este 19 Sudeste 0 -- -- 64
2019-03-31 11:00:00 15.2 4 Este 14 Este 0 -- -- 59
2019-03-31 10:00:00 13.1 4 Este 10 Este 0 -- -- 58
2019-03-31 09:00:00 9.9 2 Nordeste 6 Noroeste 0 -- -- 74
2019-03-31 08:00:00 7.9 4 Oeste 9 Sudoeste 0 -- -- 74
2019-03-31 07:00:00 7.8 4 Sudoeste 6 Oeste 0 -- -- 69
2019-03-31 06:00:00 8.2 2 Oeste 8 Noroeste 0 -- -- 65
2019-03-31 05:00:00 7.5 5 Noroeste 9 Noroeste 0 -- -- 75
2019-03-31 04:00:00 7.2 5 Oeste 8 Noroeste 0 -- -- 81
2019-03-31 00:00:00 8.3 5 Sudoeste 8 Sudoeste 0 -- -- 95
2019-03-30 23:00:00 8.2 5 Oeste 6 Oeste 0 -- -- 94
2019-03-30 22:00:00 9.3 2 Norte 5 Noroeste 0 -- -- 94
2019-03-30 21:00:00 9.8 2 Sudeste 5 Este 0 -- -- 94
2019-03-30 20:00:00 10.4 3 Sudeste 6 Sudeste 0 -- -- 92
2019-03-30 19:00:00 10.7 2 Sur 6 Este 0 -- -- 89
2019-03-30 18:00:00 10.9 2 Nordeste 6 Nordeste 0 -- -- 86
2019-03-30 17:00:00 11.1 0 Calma 7 Este 0 -- -- 92
2019-03-30 16:00:00 11.2 3 Este 9 Este 0 -- -- 96
2019-03-30 15:00:00 11 3 Este 11 Sur 2.2 -- -- 96
2019-03-30 14:00:00 10.5 2 Sudoeste 10 Sudeste 5.8 -- -- 95
2019-03-30 13:00:00 11.8 4 Sudeste 11 Sudeste 0 -- -- 85
2019-03-30 12:00:00 13.3 4 Sudeste 15 Este 0 -- -- 73
2019-03-30 11:00:00 15.7 4 Este 19 Sudeste 0 -- -- 62
2019-03-30 10:00:00 14.2 4 Este 13 Este 0 -- -- 71
2019-03-30 09:00:00 13.5 4 Este 10 Este 0 -- -- 69
2019-03-30 08:00:00 9.3 2 Noroeste 5 Noroeste 0 -- -- 84
2019-03-30 07:00:00 7.5 4 Oeste 6 Oeste 0 -- -- 86
2019-03-30 06:00:00 7.2 5 Oeste 8 Oeste 0 -- -- 89
2019-03-30 05:00:00 7.6 4 Oeste 8 Oeste 0 -- -- 87
2019-03-30 04:00:00 7.5 5 Oeste 9 Noroeste 0 -- -- 93
2019-03-30 03:00:00 8.4 0 Calma 7 Noroeste 0 -- -- 89
2019-03-30 02:00:00 8.3 4 Sudoeste 7 Oeste 0 -- -- 81
2019-03-30 01:00:00 8.5 4 Noroeste 6 Sudoeste 0 -- -- 82
2019-03-30 00:00:00 9.2 0 Calma 7 Oeste 0 -- -- 82
2019-03-29 23:00:00 9.2 3 Noroeste 7 Sudoeste 0 -- -- 84
2019-03-29 22:00:00 9.2 5 Oeste 8 Noroeste 0 -- -- 88
2019-03-29 21:00:00 10.6 4 Noroeste 8 Noroeste 0 -- -- 85
2019-03-29 20:00:00 11.3 0 Calma 9 Este 0 -- -- 83
2019-03-29 19:00:00 11.9 3 Este 14 Sudeste 0 -- -- 82
2019-03-29 18:00:00 12.8 2 Este 14 Sur 0 -- -- 82
2019-03-29 17:00:00 13.5 6 Sur 15 Sur 0 -- -- 77
2019-03-29 16:00:00 14.4 8 Sur 17 Sudoeste 0 -- -- 73
2019-03-29 15:00:00 14.9 8 Sudoeste 20 Sur 0 -- -- 68
2019-03-29 14:00:00 14.2 6 Sudoeste 24 Sur 0 -- -- 75
2019-03-29 13:00:00 14.3 9 Sur 22 Sudeste 0 -- -- 75
2019-03-29 12:00:00 15.4 4 Este 18 Sudeste 0 -- -- 71
2019-03-29 11:00:00 14.5 4 Este 15 Este 0 -- -- 74
2019-03-29 10:00:00 15.4 4 Este 13 Este 0 -- -- 70
2019-03-29 09:00:00 13.3 3 Este 8 Nordeste 0 -- -- 66
2019-03-29 08:00:00 9.8 0 Calma 5 Noroeste 0 -- -- 72
2019-03-29 07:00:00 8.3 3 Oeste 10 Noroeste 0 -- -- 70
2019-03-29 06:00:00 8.1 4 Oeste 10 Oeste 0 -- -- 73
2019-03-29 05:00:00 7.8 7 Oeste 11 Noroeste 0 -- -- 75
2019-03-29 04:00:00 8.2 5 Oeste 10 Noroeste 0 -- -- 71
2019-03-29 03:00:00 9.6 3 Sur 9 Oeste 0 -- -- 60
2019-03-29 02:00:00 8.7 8 Oeste 11 Oeste 0 -- -- 66
2019-03-29 01:00:00 8.7 6 Oeste 9 Noroeste 0 -- -- 76
2019-03-29 00:00:00 8.8 4 Oeste 6 Noroeste 0 -- -- 83
2019-03-28 23:00:00 9.9 5 Noroeste 8 Noroeste 0 -- -- 88
2019-03-28 22:00:00 10.2 4 Sur 12 Oeste 0.2 -- -- 83
2019-03-28 21:00:00 9.5 9 Oeste 12 Sudoeste 1.2 -- -- 95
2019-03-28 20:00:00 9.7 5 Sudoeste 11 Sur 2 -- -- 94
2019-03-28 19:00:00 10.4 7 Sur 13 Sur 1 -- -- 96
2019-03-28 18:00:00 11.7 3 Sudeste 12 Sudeste 0.4 -- -- 97
2019-03-28 17:00:00 12 2 Este 9 Este 0.2 -- -- 97
2019-03-28 16:00:00 12.2 0 Calma 8 Este 0.6 -- -- 96
2019-03-28 15:00:00 12.1 3 Nordeste 10 Sudeste 0.2 -- -- 93
2019-03-28 14:00:00 12.4 4 Este 15 Sudeste 0 -- -- 92
2019-03-28 13:00:00 13.1 5 Este 16 Este 0 -- -- 86
2019-03-28 12:00:00 14.9 4 Este 15 Sudeste 0 -- -- 76
2019-03-28 11:00:00 16.1 6 Este 17 Este 0 -- -- 72
2019-03-28 10:00:00 15.5 6 Este 15 Este 0 -- -- 75
2019-03-28 09:00:00 13.3 3 Este 8 Nordeste 0 -- -- 79
2019-03-28 08:00:00 10.4 2 Sudeste 6 Sudoeste 0 -- -- 85
2019-03-28 07:00:00 8.3 5 Noroeste 9 Noroeste 0 -- -- 92
2019-03-28 06:00:00 8.7 2 Oeste 8 Sudeste 0 -- -- 90
2019-03-28 05:00:00 9.1 2 Sudoeste 7 Sudoeste 0 -- -- 83
2019-03-28 04:00:00 8.8 4 Sudoeste 8 Oeste 0 -- -- 89
2019-03-28 03:00:00 8.5 3 Oeste 5 Oeste 0 -- -- 93
2019-03-28 02:00:00 8.8 4 Oeste 6 Noroeste 0 -- -- 93
2019-03-28 01:00:00 9.3 4 Noroeste 11 Noroeste 0 -- -- 94
2019-03-28 00:00:00 10.2 0 Calma 5 Oeste 0 -- -- 96
2019-03-27 23:00:00 9.8 5 Sudoeste 8 Sudoeste 0.2 -- -- 96
2019-03-27 22:00:00 10.1 6 Oeste 10 Oeste 0 -- -- 93
2019-03-27 21:00:00 11.3 2 Sur 5 Este 0 -- -- 96
2019-03-27 20:00:00 11.5 3 Este 5 Nordeste 0 -- -- 97
2019-03-27 19:00:00 11.9 3 Sudeste 12 Sudeste 0 -- -- 95
2019-03-27 18:00:00 12.2 0 Calma 13 Sudeste 2.2 -- -- 95
2019-03-27 17:00:00 12.8 3 Sudeste 8 Sur 0 -- -- 89
2019-03-27 16:00:00 13.2 3 Este 17 Sudeste 0 -- -- 89
2019-03-27 15:00:00 14.1 3 Este 15 Este 0 -- -- 85
2019-03-27 14:00:00 13.6 4 Sur 14 Sudeste 0 -- -- 87
2019-03-27 13:00:00 14.5 5 Sudeste 22 Este 0 -- -- 83
2019-03-27 12:00:00 15.5 4 Sudeste 19 Este 0 -- -- 76
2019-03-27 11:00:00 16 5 Este 14 Este 0 -- -- 72
2019-03-27 10:00:00 13.2 5 Este 9 Nordeste 0 -- -- 76
2019-03-27 09:00:00 12 4 Este 9 Nordeste 0 -- -- 80
2019-03-27 08:00:00 10.7 3 Este 11 Noroeste 0 -- -- 80
2019-03-27 07:00:00 8.4 5 Oeste 11 Oeste 0 -- -- 86
2019-03-27 06:00:00 8.9 0 Calma 9 Noroeste 0 -- -- 84
2019-03-27 05:00:00 8.6 5 Noroeste 9 Noroeste 0 -- -- 85
2019-03-27 04:00:00 9.5 2 Este 9 Sur 0 -- -- 82
2019-03-27 03:00:00 9.4 4 Sur 9 Noroeste 0 -- -- 80
2019-03-27 02:00:00 8.9 5 Sudoeste 12 Sur 0 -- -- 87
2019-03-27 01:00:00 9.2 3 Norte 8 Sudoeste 0 -- -- 79
2019-03-27 00:00:00 8.7 4 Oeste 10 Noroeste 0 -- -- 85
2019-03-26 23:00:00 9.4 4 Sudeste 10 Sur 0 -- -- 88
2019-03-26 22:00:00 9 5 Oeste 8 Oeste 0 -- -- 93
2019-03-26 21:00:00 9.7 4 Sur 7 Sudeste 0 -- -- 95
2019-03-26 20:00:00 10.3 3 Sur 8 Sudoeste 0 -- -- 95
2019-03-26 19:00:00 11.2 2 Sur 10 Sur 0 -- -- 96
2019-03-26 18:00:00 11.4 4 Sur 11 Sudeste 0.2 -- -- 95
2019-03-26 17:00:00 12.2 2 Este 9 Sudeste 0 -- -- 92
2019-03-26 16:00:00 12.4 3 Este 11 Este 0 -- -- 89
2019-03-26 15:00:00 12 2 Este 8 Noroeste 0 -- -- 90
2019-03-26 14:00:00 11.3 3 Noroeste 13 Este 1.4 -- -- 89
2019-03-26 13:00:00 11.8 6 Sudeste 17 Sudeste 1.2 -- -- 91
2019-03-26 12:00:00 14.2 4 Sur 14 Este 0 -- -- 73
2019-03-26 11:00:00 13.8 5 Sudeste 17 Este 0 -- -- 72
2019-03-26 10:00:00 15.5 5 Este 13 Este 0 -- -- 70
2019-03-26 09:00:00 12.7 4 Nordeste 10 Este 0 -- -- 72
2019-03-26 08:00:00 9.7 3 Nordeste 6 Oeste 0 -- -- 80
2019-03-26 07:00:00 7.8 5 Sudoeste 7 Sudoeste 0 -- -- 81
2019-03-26 06:00:00 7.5 5 Oeste 8 Sudoeste 0 -- -- 81
2019-03-26 05:00:00 7.4 3 Sudoeste 8 Noroeste 0 -- -- 85
2019-03-26 04:00:00 7.8 2 Sudeste 6 Sudoeste 0 -- -- 87
2019-03-26 03:00:00 8.1 3 Este 6 Oeste 0 -- -- 86
2019-03-26 02:00:00 8.5 4 Sudoeste 12 Sudoeste 0 -- -- 82
2019-03-26 01:00:00 9.3 6 Sudoeste 12 Sudoeste 0 -- -- 78
2019-03-26 00:00:00 8.6 5 Oeste 17 Sudoeste 0 -- -- 88
2019-03-25 23:00:00 8.9 7 Oeste 9 Oeste 0 -- -- 95
2019-03-25 22:00:00 9.5 0 Calma 7 Sudoeste 0.2 -- -- 95
2019-03-25 21:00:00 9.7 0 Calma 7 Este 0 -- -- 95
2019-03-25 20:00:00 9.9 2 Este 6 Sur 0 -- -- 95
2019-03-25 19:00:00 10.2 2 Oeste 6 Este 0.4 -- -- 93
2019-03-25 18:00:00 10.9 2 Este 12 Sur 0.2 -- -- 91
2019-03-25 17:00:00 11.7 0 Calma 17 Sudeste 0 -- -- 83
2019-03-25 16:00:00 11.4 5 Este 24 Noroeste 3.6 -- -- 79
2019-03-25 15:00:00 9.9 4 Sur 17 Sur 4 -- -- 94
2019-03-25 14:00:00 11.5 4 Sudeste 10 Sudeste 0.2 -- -- 85
2019-03-25 13:00:00 11.6 5 Sur 16 Sudoeste 0.2 -- -- 77
2019-03-25 12:00:00 12.3 7 Sudoeste 15 Oeste 0 -- -- 76
2019-03-25 11:00:00 12.7 4 Noroeste 14 Sudoeste 0 -- -- 66
2019-03-25 10:00:00 11.9 3 Norte 18 Oeste 0 -- -- 67
2019-03-25 09:00:00 10.3 3 Noroeste 10 Sudoeste 0 -- -- 74
2019-03-25 08:00:00 9.5 0 Calma 10 Sudoeste 0 -- -- 69
2019-03-25 07:00:00 8.4 5 Oeste 8 Sudoeste 0 -- -- 76
2019-03-25 06:00:00 8.6 4 Sudoeste 6 Oeste 0 -- -- 79
2019-03-25 05:00:00 8.5 3 Noroeste 6 Sudoeste 0 -- -- 76
2019-03-25 04:00:00 9.2 4 Sur 5 Noroeste 0 -- -- 73
2019-03-25 03:00:00 8.9 4 Noroeste 9 Oeste 0 -- -- 76
2019-03-25 02:00:00 8.2 7 Oeste 9 Oeste 0 -- -- 84
2019-03-25 01:00:00 8.5 3 Oeste 11 Oeste 0 -- -- 90
2019-03-25 00:00:00 9 4 Oeste 5 Sudoeste 0 -- -- 88
2019-03-24 23:00:00 10.1 2 Sur 6 Sudeste 0 -- -- 90
2019-03-24 22:00:00 10.2 3 Este 6 Este 0 -- -- 90
2019-03-24 21:00:00 10.6 3 Este 11 Este 0 -- -- 90
2019-03-24 20:00:00 11.2 4 Este 9 Este 0 -- -- 87
2019-03-24 19:00:00 12.2 4 Este 11 Este 0 -- -- 82
2019-03-24 18:00:00 13.5 2 Nordeste 10 Nordeste 0 -- -- 77
2019-03-24 17:00:00 14.6 3 Este 15 Sudeste 0 -- -- 72
2019-03-24 16:00:00 15.9 6 Este 15 Este 0 -- -- 65
2019-03-24 15:00:00 19.1 5 Este 23 Este 0 -- -- 55
2019-03-24 14:00:00 20.1 7 Este 20 Este 0 -- -- 51
2019-03-24 13:00:00 19.5 7 Este 21 Sudeste 0 -- -- 50
2019-03-24 12:00:00 18.6 5 Este 18 Este 0 -- -- 51
2019-03-24 11:00:00 17.3 5 Este 17 Este 0 -- -- 55
2019-03-24 10:00:00 15.4 3 Nordeste 13 Nordeste 0 -- -- 61
2019-03-24 09:00:00 12.6 5 Nordeste 10 Este 0 -- -- 72
2019-03-24 08:00:00 8.9 3 Norte 10 Noroeste 0 -- -- 89
2019-03-24 07:00:00 8.6 4 Sudoeste 7 Sudoeste 0 -- -- 94
2019-03-24 06:00:00 8.4 2 Sudoeste 8 Sur 0 -- -- 95
2019-03-24 05:00:00 8.5 4 Noroeste 8 Oeste 0 -- -- 81
2019-03-24 04:00:00 8.6 4 Oeste 8 Oeste 0 -- -- 83
2019-03-24 03:00:00 9.7 0 Calma 6 Noroeste 0 -- -- 78
2019-03-24 02:00:00 10.9 5 Sudeste 9 Sudeste 0 -- -- 75
2019-03-24 01:00:00 11 3 Sudoeste 10 Noroeste 0 -- -- 73
2019-03-24 00:00:00 12.1 3 Sur 9 Sudeste 0 -- -- 70
2019-03-23 23:00:00 12.9 4 Noroeste 6 Noroeste 0 -- -- 62
2019-03-23 22:00:00 13.4 5 Noroeste 7 Noroeste 0 -- -- 64
2019-03-23 21:00:00 14.1 5 Sudoeste 12 Noroeste 0 -- -- 61
2019-03-23 20:00:00 14.4 5 Sudoeste 9 Noroeste 0 -- -- 69
2019-03-23 19:00:00 15.3 4 Oeste 13 Oeste 0 -- -- 65
2019-03-23 18:00:00 17 3 Este 16 Sudeste 0 -- -- 60
2019-03-23 17:00:00 19.7 4 Este 21 Este 0 -- -- 47
2019-03-23 16:00:00 20.1 7 Sudeste 28 Sudeste 0 -- -- 46
2019-03-23 15:00:00 21.6 5 Sur 27 Sudeste 0 -- -- 46
2019-03-23 14:00:00 22.5 7 Este 25 Sudeste 0 -- -- 45
2019-03-23 13:00:00 21.9 7 Sudeste 20 Sudeste 0 -- -- 48
2019-03-23 12:00:00 22.7 6 Este 16 Este 0 -- -- 43
2019-03-23 11:00:00 22.2 4 Este 19 Sudeste 0 -- -- 40
2019-03-23 10:00:00 21.5 5 Este 13 Este 0 -- -- 32
2019-03-23 09:00:00 18.9 4 Este 9 Este 0 -- -- 34
2019-03-23 08:00:00 15.5 4 Noroeste 13 Noroeste 0 -- -- 38
2019-03-23 07:00:00 14.4 8 Noroeste 12 Noroeste 0 -- -- 39
2019-03-23 06:00:00 16.6 7 Oeste 14 Noroeste 0 -- -- 33
2019-03-23 05:00:00 16.7 4 Sur 8 Sudeste 0 -- -- 32
2019-03-23 04:00:00 16.4 3 Oeste 14 Oeste 0 -- -- 29
2019-03-23 03:00:00 15.9 4 Sudoeste 11 Noroeste 0 -- -- 32
2019-03-23 02:00:00 12.9 11 Oeste 21 Sur 0 -- -- 55
2019-03-23 01:00:00 15.7 7 Sudoeste 30 Sur 0 -- -- 23
2019-03-23 00:00:00 14.9 6 Oeste 24 Sur 0 -- -- 48
2019-03-22 23:00:00 18.8 4 Sur 9 Oeste 0 -- -- 16
2019-03-22 22:00:00 18.4 4 Norte 9 Oeste 0 -- -- 20
2019-03-22 21:00:00 18.2 3 Sudoeste 13 Oeste 0 -- -- 25
2019-03-22 20:00:00 19 3 Sudeste 12 Oeste 0 -- -- 29
2019-03-22 19:00:00 19.2 9 Noroeste 15 Noroeste 0 -- -- 30
2019-03-22 18:00:00 21.3 5 Sudeste 12 Sudeste 0 -- -- 36
2019-03-22 17:00:00 22.9 3 Sudeste 18 Este 0 -- -- 20
2019-03-22 16:00:00 23.8 5 Este 19 Sudeste 0 -- -- 19
2019-03-22 15:00:00 25 6 Sudeste 19 Sudeste 0 -- -- 16
2019-03-22 14:00:00 24.2 5 Sudeste 19 Sudeste 0 -- -- 16
2019-03-22 13:00:00 21.5 5 Este 14 Sudeste 0 -- -- 26
2019-03-22 12:00:00 16.9 5 Este 11 Sur 0 -- -- 61
2019-03-22 11:00:00 20.8 5 Este 15 Sudeste 0 -- -- 47
2019-03-22 10:00:00 21.5 4 Este 10 Nordeste 0 -- -- 30
2019-03-22 09:00:00 17.4 3 Nordeste 8 Norte 0 -- -- 20
2019-03-22 08:00:00 16.4 2 Este 5 Noroeste 0 -- -- 18
2019-03-22 07:00:00 16.3 4 Oeste 7 Noroeste 0 -- -- 16
2019-03-22 06:00:00 17.5 5 Noroeste 11 Este 0 -- -- 16
2019-03-22 05:00:00 16.8 4 Oeste 12 Oeste 0 -- -- 15
2019-03-22 04:00:00 16.5 4 Oeste 7 Sur 0 -- -- 21
2019-03-22 03:00:00 16.7 4 Sudoeste 10 Noroeste 0 -- -- 23
2019-03-22 02:00:00 16.5 4 Este 10 Este 0 -- -- 28
2019-03-22 01:00:00 16 3 Sur 5 Sudeste 0 -- -- 32
2019-03-22 00:00:00 16.2 3 Sur 12 Oeste 0 -- -- 34
2019-03-21 23:00:00 15.3 4 Oeste 10 Noroeste 0 -- -- 32
2019-03-21 22:00:00 15.6 3 Sudeste 7 Sudoeste 0 -- -- 39
2019-03-21 21:00:00 15.6 0 Calma 6 Oeste 0 -- -- 48
2019-03-21 20:00:00 16.4 3 Sudeste 5 Sur 0 -- -- 45
2019-03-21 19:00:00 17.2 2 Oeste 6 Sudeste 0 -- -- 44
2019-03-21 18:00:00 19 4 Este 11 Sudeste 0 -- -- 43
2019-03-21 17:00:00 21.7 5 Sudeste 17 Sur 0 -- -- 37
2019-03-21 16:00:00 24.2 5 Sudeste 21 Sudeste 0 -- -- 17
2019-03-21 15:00:00 25.1 5 Sudeste 22 Sudeste 0 -- -- 14
2019-03-21 14:00:00 24.4 9 Sur 30 Sudeste 0 -- -- 16
2019-03-21 13:00:00 24.8 9 Sudeste 27 Sudeste 0 -- -- 15
2019-03-21 12:00:00 24.7 8 Sudeste 24 Sur 0 -- -- 19
2019-03-21 11:00:00 22.3 7 Sudeste 21 Sudeste 0 -- -- 20
2019-03-21 10:00:00 22.1 4 Nordeste 13 Este 0 -- -- 25
2019-03-21 09:00:00 19.7 3 Sudeste 12 Sudeste 0 -- -- 20
2019-03-21 08:00:00 17.6 4 Sudeste 13 Sudoeste 0 -- -- 20
2019-03-21 07:00:00 14.9 6 Sudoeste 12 Sudoeste 0 -- -- 14
2019-03-21 06:00:00 15.2 6 Sudoeste 13 Sudoeste 0 -- -- 14
2019-03-21 05:00:00 16.1 5 Sur 10 Sudoeste 0 -- -- 15
2019-03-21 04:00:00 15.3 5 Sudoeste 10 Sudoeste 0 -- -- 17
2019-03-21 03:00:00 14.9 4 Oeste 8 Sudoeste 0 -- -- 18
2019-03-21 02:00:00 15.2 6 Sudoeste 10 Oeste 0 -- -- 19
2019-03-21 01:00:00 14.2 4 Sudoeste 6 Oeste 0 -- -- 23
2019-03-21 00:00:00 13.9 3 Sudoeste 6 Sudoeste 0 -- -- 34
2019-03-20 23:00:00 13.5 3 Oeste 6 Noroeste 0 -- -- 46
2019-03-20 22:00:00 13.4 5 Noroeste 8 Noroeste 0 -- -- 51
2019-03-20 21:00:00 14.2 0 Calma 5 Oeste 0 -- -- 51
2019-03-20 20:00:00 14.6 4 Oeste 5 Sudoeste 0 -- -- 49
2019-03-20 19:00:00 16.3 0 Calma 7 Sudeste 0 -- -- 46
2019-03-20 18:00:00 18.6 3 Este 10 Sudeste 0 -- -- 43
2019-03-20 17:00:00 20.6 4 Este 12 Este 0 -- -- 31
2019-03-20 16:00:00 21.7 5 Este 15 Este 0 -- -- 26
2019-03-20 15:00:00 22.5 5 Este 19 Nordeste 0 -- -- 29
2019-03-20 14:00:00 22.3 6 Este 21 Este 0 -- -- 32
2019-03-20 13:00:00 21.1 6 Sudeste 22 Este 0 -- -- 37
2019-03-20 12:00:00 22.1 4 Este 19 Este 0 -- -- 34
2019-03-20 11:00:00 21.4 5 Este 17 Nordeste 0 -- -- 29
2019-03-20 10:00:00 19.3 3 Noroeste 10 Sudoeste 0 -- -- 28
2019-03-20 09:00:00 17.1 2 Nordeste 10 Sur 0 -- -- 26
2019-03-20 08:00:00 13.1 5 Sur 10 Sur 0 -- -- 32
2019-03-20 07:00:00 11.1 6 Sudoeste 10 Oeste 0 -- -- 33
2019-03-20 06:00:00 10.7 0 Calma 8 Oeste 0 -- -- 37
2019-03-20 05:00:00 10.2 5 Oeste 9 Oeste 0 -- -- 52
2019-03-20 04:00:00 10.3 2 Oeste 7 Oeste 0 -- -- 57
2019-03-20 03:00:00 11.2 3 Sur 8 Oeste 0 -- -- 53
2019-03-20 02:00:00 11 5 Sudoeste 8 Sudoeste 0 -- -- 59
2019-03-20 01:00:00 10.6 4 Oeste 6 Oeste 0 -- -- 69
2019-03-20 00:00:00 11.1 2 Nordeste 6 Oeste 0 -- -- 80
2019-03-19 23:00:00 10.5 4 Oeste 7 Oeste 0 -- -- 82
2019-03-19 22:00:00 11.5 3 Oeste 7 Sudoeste 0 -- -- 77
2019-03-19 21:00:00 12.1 3 Este 5 Nordeste 0 -- -- 80
2019-03-19 20:00:00 13.1 0 Calma 5 Noroeste 0 -- -- 72
2019-03-19 19:00:00 14.3 2 Nordeste 7 Sur 0 -- -- 70
2019-03-19 18:00:00 16.6 4 Sur 12 Sudeste 0 -- -- 59
2019-03-19 17:00:00 18.4 6 Sudeste 18 Sudeste 0 -- -- 47
2019-03-19 16:00:00 19.8 6 Sudeste 18 Sur 0 -- -- 38
2019-03-19 15:00:00 21 6 Sudeste 19 Sur 0 -- -- 34
2019-03-19 14:00:00 21.2 6 Sudeste 23 Sudeste 0 -- -- 34
2019-03-19 13:00:00 20.5 7 Sudeste 21 Nordeste 0 -- -- 39
2019-03-19 12:00:00 19.5 6 Sur 18 Este 0 -- -- 40
2019-03-19 11:00:00 18.9 6 Este 18 Nordeste 0 -- -- 40
2019-03-19 10:00:00 17.7 4 Nordeste 18 Este 0 -- -- 42
2019-03-19 09:00:00 14.7 4 Nordeste 12 Sudeste 0 -- -- 45
2019-03-19 08:00:00 11.3 5 Sudoeste 9 Sudoeste 0 -- -- 49
2019-03-19 07:00:00 9.8 6 Sudoeste 14 Sur 0 -- -- 45
2019-03-19 06:00:00 10.2 4 Sur 11 Oeste 0 -- -- 50
2019-03-19 05:00:00 10 3 Sudoeste 11 Oeste 0 -- -- 54
2019-03-19 04:00:00 10.5 4 Sur 14 Sudoeste 0 -- -- 56
2019-03-19 03:00:00 10 3 Oeste 10 Oeste 0 -- -- 66
2019-03-19 02:00:00 9.7 2 Sudeste 13 Sudoeste 0 -- -- 78
2019-03-19 01:00:00 10.2 4 Sudeste 9 Sudoeste 0 -- -- 81
2019-03-19 00:00:00 10.2 2 Oeste 7 Este 0 -- -- 80